sensor_id;sensor_type;location;lat;lon;timestamp;P1;durP1;ratioP1;P2;durP2;ratioP2
4808;SDS011;2418;49.930;8.606;2023-10-19T00:00:44;16.08;;;11.88;;
4808;SDS011;2418;49.930;8.606;2023-10-19T00:03:13;16.95;;;11.75;;
4808;SDS011;2418;49.930;8.606;2023-10-19T00:05:39;17.23;;;13.10;;
4808;SDS011;2418;49.930;8.606;2023-10-19T00:08:06;22.95;;;13.35;;
4808;SDS011;2418;49.930;8.606;2023-10-19T00:10:45;23.00;;;12.33;;
4808;SDS011;2418;49.930;8.606;2023-10-19T00:13:13;18.02;;;12.85;;
4808;SDS011;2418;49.930;8.606;2023-10-19T00:15:40;18.52;;;13.32;;
4808;SDS011;2418;49.930;8.606;2023-10-19T00:18:11;18.73;;;12.70;;
4808;SDS011;2418;49.930;8.606;2023-10-19T00:20:40;15.80;;;12.70;;
4808;SDS011;2418;49.930;8.606;2023-10-19T00:23:16;18.83;;;12.38;;
4808;SDS011;2418;49.930;8.606;2023-10-19T00:25:46;19.50;;;13.73;;
4808;SDS011;2418;49.930;8.606;2023-10-19T00:28:16;19.38;;;13.05;;
4808;SDS011;2418;49.930;8.606;2023-10-19T00:30:42;16.33;;;12.70;;
4808;SDS011;2418;49.930;8.606;2023-10-19T00:33:10;20.80;;;14.20;;
4808;SDS011;2418;49.930;8.606;2023-10-19T00:35:46;22.08;;;13.82;;
4808;SDS011;2418;49.930;8.606;2023-10-19T00:38:21;22.30;;;14.70;;
4808;SDS011;2418;49.930;8.606;2023-10-19T00:41:00;22.03;;;15.30;;
4808;SDS011;2418;49.930;8.606;2023-10-19T00:43:36;19.20;;;14.40;;
4808;SDS011;2418;49.930;8.606;2023-10-19T00:46:04;22.58;;;14.77;;
4808;SDS011;2418;49.930;8.606;2023-10-19T00:48:35;20.23;;;14.43;;
4808;SDS011;2418;49.930;8.606;2023-10-19T00:51:01;21.30;;;14.50;;
4808;SDS011;2418;49.930;8.606;2023-10-19T00:53:48;20.85;;;15.18;;
4808;SDS011;2418;49.930;8.606;2023-10-19T00:56:14;24.10;;;15.93;;
4808;SDS011;2418;49.930;8.606;2023-10-19T00:58:45;23.98;;;14.65;;
4808;SDS011;2418;49.930;8.606;2023-10-19T01:01:19;20.85;;;14.52;;
4808;SDS011;2418;49.930;8.606;2023-10-19T01:03:48;21.73;;;13.80;;
4808;SDS011;2418;49.930;8.606;2023-10-19T01:06:17;21.42;;;14.93;;
4808;SDS011;2418;49.930;8.606;2023-10-19T01:08:45;27.33;;;15.57;;
4808;SDS011;2418;49.930;8.606;2023-10-19T01:11:11;24.08;;;16.33;;
4808;SDS011;2418;49.930;8.606;2023-10-19T01:13:41;24.40;;;16.48;;
4808;SDS011;2418;49.930;8.606;2023-10-19T01:16:12;34.35;;;19.02;;
4808;SDS011;2418;49.930;8.606;2023-10-19T01:18:45;28.23;;;18.85;;
4808;SDS011;2418;49.930;8.606;2023-10-19T01:21:11;34.53;;;18.90;;
4808;SDS011;2418;49.930;8.606;2023-10-19T01:23:37;33.10;;;20.27;;
4808;SDS011;2418;49.930;8.606;2023-10-19T01:26:03;30.90;;;19.48;;
4808;SDS011;2418;49.930;8.606;2023-10-19T01:28:33;31.33;;;20.50;;
4808;SDS011;2418;49.930;8.606;2023-10-19T01:31:07;32.80;;;20.20;;
4808;SDS011;2418;49.930;8.606;2023-10-19T01:33:39;33.92;;;21.23;;
4808;SDS011;2418;49.930;8.606;2023-10-19T01:36:06;32.72;;;20.58;;
4808;SDS011;2418;49.930;8.606;2023-10-19T01:38:36;39.35;;;21.40;;
4808;SDS011;2418;49.930;8.606;2023-10-19T01:41:02;38.92;;;22.65;;
4808;SDS011;2418;49.930;8.606;2023-10-19T01:43:47;39.95;;;23.17;;
4808;SDS011;2418;49.930;8.606;2023-10-19T01:46:14;35.67;;;24.03;;
4808;SDS011;2418;49.930;8.606;2023-10-19T01:48:47;44.83;;;24.63;;
4808;SDS011;2418;49.930;8.606;2023-10-19T01:51:14;38.28;;;23.60;;
4808;SDS011;2418;49.930;8.606;2023-10-19T01:53:40;43.30;;;24.35;;
4808;SDS011;2418;49.930;8.606;2023-10-19T01:56:14;40.05;;;24.23;;
4808;SDS011;2418;49.930;8.606;2023-10-19T01:58:42;40.85;;;24.17;;
4808;SDS011;2418;49.930;8.606;2023-10-19T02:01:08;42.28;;;24.45;;
4808;SDS011;2418;49.930;8.606;2023-10-19T02:03:38;37.55;;;24.30;;
4808;SDS011;2418;49.930;8.606;2023-10-19T02:06:07;38.97;;;23.90;;
4808;SDS011;2418;49.930;8.606;2023-10-19T02:08:45;38.83;;;23.42;;
4808;SDS011;2418;49.930;8.606;2023-10-19T02:11:13;38.55;;;22.33;;
4808;SDS011;2418;49.930;8.606;2023-10-19T02:13:44;39.10;;;23.90;;
4808;SDS011;2418;49.930;8.606;2023-10-19T02:16:13;41.83;;;23.25;;
4808;SDS011;2418;49.930;8.606;2023-10-19T02:18:42;35.30;;;22.40;;
4808;SDS011;2418;49.930;8.606;2023-10-19T02:21:09;38.42;;;23.88;;
4808;SDS011;2418;49.930;8.606;2023-10-19T02:23:37;37.77;;;23.10;;
4808;SDS011;2418;49.930;8.606;2023-10-19T02:26:04;33.03;;;22.17;;
4808;SDS011;2418;49.930;8.606;2023-10-19T02:28:30;38.17;;;23.08;;
4808;SDS011;2418;49.930;8.606;2023-10-19T02:30:57;39.80;;;24.42;;
4808;SDS011;2418;49.930;8.606;2023-10-19T02:33:37;33.15;;;22.80;;
4808;SDS011;2418;49.930;8.606;2023-10-19T02:36:03;36.28;;;21.75;;
4808;SDS011;2418;49.930;8.606;2023-10-19T02:38:32;35.63;;;22.85;;
4808;SDS011;2418;49.930;8.606;2023-10-19T02:40:59;38.00;;;22.73;;
4808;SDS011;2418;49.930;8.606;2023-10-19T02:43:25;39.88;;;23.27;;
4808;SDS011;2418;49.930;8.606;2023-10-19T02:45:51;40.83;;;23.88;;
4808;SDS011;2418;49.930;8.606;2023-10-19T02:48:18;34.35;;;22.27;;
4808;SDS011;2418;49.930;8.606;2023-10-19T02:50:44;41.90;;;22.90;;
4808;SDS011;2418;49.930;8.606;2023-10-19T02:53:11;35.53;;;21.23;;
4808;SDS011;2418;49.930;8.606;2023-10-19T02:55:38;32.55;;;20.83;;
4808;SDS011;2418;49.930;8.606;2023-10-19T02:58:05;36.60;;;22.02;;
4808;SDS011;2418;49.930;8.606;2023-10-19T03:00:31;34.15;;;21.67;;
4808;SDS011;2418;49.930;8.606;2023-10-19T03:02:59;31.50;;;21.75;;
4808;SDS011;2418;49.930;8.606;2023-10-19T03:05:27;37.88;;;21.95;;
4808;SDS011;2418;49.930;8.606;2023-10-19T03:07:53;39.00;;;22.20;;
4808;SDS011;2418;49.930;8.606;2023-10-19T03:10:19;38.20;;;23.02;;
4808;SDS011;2418;49.930;8.606;2023-10-19T03:13:07;37.03;;;23.60;;
4808;SDS011;2418;49.930;8.606;2023-10-19T03:15:33;38.92;;;22.23;;
4808;SDS011;2418;49.930;8.606;2023-10-19T03:18:00;38.05;;;23.65;;
4808;SDS011;2418;49.930;8.606;2023-10-19T03:20:27;41.47;;;24.10;;
4808;SDS011;2418;49.930;8.606;2023-10-19T03:22:54;47.55;;;23.55;;
4808;SDS011;2418;49.930;8.606;2023-10-19T03:25:24;36.50;;;24.33;;
4808;SDS011;2418;49.930;8.606;2023-10-19T03:28:09;42.80;;;25.15;;
4808;SDS011;2418;49.930;8.606;2023-10-19T03:30:36;40.35;;;24.17;;
4808;SDS011;2418;49.930;8.606;2023-10-19T03:33:06;40.88;;;24.55;;
4808;SDS011;2418;49.930;8.606;2023-10-19T03:35:37;41.08;;;24.10;;
4808;SDS011;2418;49.930;8.606;2023-10-19T03:38:06;36.67;;;23.65;;
4808;SDS011;2418;49.930;8.606;2023-10-19T03:40:43;38.65;;;24.05;;
4808;SDS011;2418;49.930;8.606;2023-10-19T03:43:16;40.35;;;23.65;;
4808;SDS011;2418;49.930;8.606;2023-10-19T03:45:43;36.92;;;23.02;;
4808;SDS011;2418;49.930;8.606;2023-10-19T03:48:16;41.28;;;23.73;;
4808;SDS011;2418;49.930;8.606;2023-10-19T03:50:42;42.15;;;24.55;;
4808;SDS011;2418;49.930;8.606;2023-10-19T03:53:13;36.40;;;22.37;;
4808;SDS011;2418;49.930;8.606;2023-10-19T03:55:40;44.30;;;23.98;;
4808;SDS011;2418;49.930;8.606;2023-10-19T03:58:08;41.20;;;24.02;;
4808;SDS011;2418;49.930;8.606;2023-10-19T04:00:34;39.00;;;24.67;;
4808;SDS011;2418;49.930;8.606;2023-10-19T04:03:00;37.75;;;23.92;;
4808;SDS011;2418;49.930;8.606;2023-10-19T04:05:27;39.13;;;24.02;;
4808;SDS011;2418;49.930;8.606;2023-10-19T04:07:53;41.35;;;24.40;;
4808;SDS011;2418;49.930;8.606;2023-10-19T04:10:30;40.97;;;24.73;;
4808;SDS011;2418;49.930;8.606;2023-10-19T04:12:59;44.43;;;25.30;;
4808;SDS011;2418;49.930;8.606;2023-10-19T04:15:26;42.53;;;25.30;;
4808;SDS011;2418;49.930;8.606;2023-10-19T04:17:52;40.13;;;25.73;;
4808;SDS011;2418;49.930;8.606;2023-10-19T04:20:20;39.17;;;24.95;;
4808;SDS011;2418;49.930;8.606;2023-10-19T04:22:51;42.30;;;24.13;;
4808;SDS011;2418;49.930;8.606;2023-10-19T04:25:31;40.83;;;23.63;;
4808;SDS011;2418;49.930;8.606;2023-10-19T04:27:57;39.90;;;23.50;;
4808;SDS011;2418;49.930;8.606;2023-10-19T04:30:23;39.42;;;24.42;;
4808;SDS011;2418;49.930;8.606;2023-10-19T04:32:52;41.58;;;24.90;;
4808;SDS011;2418;49.930;8.606;2023-10-19T04:35:20;41.17;;;25.75;;
4808;SDS011;2418;49.930;8.606;2023-10-19T04:37:49;39.05;;;23.48;;
4808;SDS011;2418;49.930;8.606;2023-10-19T04:40:16;48.53;;;24.23;;
4808;SDS011;2418;49.930;8.606;2023-10-19T04:42:51;40.92;;;25.83;;
4808;SDS011;2418;49.930;8.606;2023-10-19T04:45:18;40.78;;;24.85;;
4808;SDS011;2418;49.930;8.606;2023-10-19T04:47:44;41.05;;;24.25;;
4808;SDS011;2418;49.930;8.606;2023-10-19T04:50:11;46.77;;;24.17;;
4808;SDS011;2418;49.930;8.606;2023-10-19T04:52:38;50.85;;;25.25;;
4808;SDS011;2418;49.930;8.606;2023-10-19T04:55:04;40.13;;;23.63;;
4808;SDS011;2418;49.930;8.606;2023-10-19T04:57:31;41.58;;;23.63;;
4808;SDS011;2418;49.930;8.606;2023-10-19T04:59:57;41.00;;;23.75;;
4808;SDS011;2418;49.930;8.606;2023-10-19T05:02:23;40.03;;;23.88;;
4808;SDS011;2418;49.930;8.606;2023-10-19T05:04:52;50.75;;;24.63;;
4808;SDS011;2418;49.930;8.606;2023-10-19T05:07:18;37.83;;;22.83;;
4808;SDS011;2418;49.930;8.606;2023-10-19T05:09:46;41.45;;;23.95;;
4808;SDS011;2418;49.930;8.606;2023-10-19T05:12:13;37.45;;;23.25;;
4808;SDS011;2418;49.930;8.606;2023-10-19T05:14:40;41.42;;;24.00;;
4808;SDS011;2418;49.930;8.606;2023-10-19T05:17:06;38.75;;;20.95;;
4808;SDS011;2418;49.930;8.606;2023-10-19T05:19:37;38.42;;;23.15;;
4808;SDS011;2418;49.930;8.606;2023-10-19T05:22:06;37.08;;;22.75;;
4808;SDS011;2418;49.930;8.606;2023-10-19T05:24:32;38.13;;;23.33;;
4808;SDS011;2418;49.930;8.606;2023-10-19T05:26:59;49.23;;;24.00;;
4808;SDS011;2418;49.930;8.606;2023-10-19T05:29:25;42.08;;;23.13;;
4808;SDS011;2418;49.930;8.606;2023-10-19T05:31:51;39.50;;;23.17;;
4808;SDS011;2418;49.930;8.606;2023-10-19T05:34:23;38.25;;;22.48;;
4808;SDS011;2418;49.930;8.606;2023-10-19T05:36:50;43.00;;;23.48;;
4808;SDS011;2418;49.930;8.606;2023-10-19T05:39:16;38.08;;;23.63;;
4808;SDS011;2418;49.930;8.606;2023-10-19T05:41:42;45.13;;;24.83;;
4808;SDS011;2418;49.930;8.606;2023-10-19T05:44:08;43.17;;;23.92;;
4808;SDS011;2418;49.930;8.606;2023-10-19T05:46:35;42.42;;;24.13;;
4808;SDS011;2418;49.930;8.606;2023-10-19T05:49:01;36.55;;;22.77;;
4808;SDS011;2418;49.930;8.606;2023-10-19T05:51:29;37.05;;;23.15;;
4808;SDS011;2418;49.930;8.606;2023-10-19T05:53:55;38.17;;;23.05;;
4808;SDS011;2418;49.930;8.606;2023-10-19T05:56:27;42.35;;;22.92;;
4808;SDS011;2418;49.930;8.606;2023-10-19T05:58:53;45.00;;;24.63;;
4808;SDS011;2418;49.930;8.606;2023-10-19T06:01:19;39.65;;;23.77;;
4808;SDS011;2418;49.930;8.606;2023-10-19T06:03:47;37.47;;;23.23;;
4808;SDS011;2418;49.930;8.606;2023-10-19T06:06:13;39.38;;;23.15;;
4808;SDS011;2418;49.930;8.606;2023-10-19T06:08:40;48.78;;;23.05;;
4808;SDS011;2418;49.930;8.606;2023-10-19T06:11:06;41.10;;;23.35;;
4808;SDS011;2418;49.930;8.606;2023-10-19T06:13:32;36.72;;;22.35;;
4808;SDS011;2418;49.930;8.606;2023-10-19T06:15:58;38.63;;;22.98;;
4808;SDS011;2418;49.930;8.606;2023-10-19T06:18:24;41.50;;;24.37;;
4808;SDS011;2418;49.930;8.606;2023-10-19T06:20:51;40.78;;;23.17;;
4808;SDS011;2418;49.930;8.606;2023-10-19T06:23:19;39.70;;;22.45;;
4808;SDS011;2418;49.930;8.606;2023-10-19T06:25:45;39.78;;;23.73;;
4808;SDS011;2418;49.930;8.606;2023-10-19T06:28:12;36.65;;;22.70;;
4808;SDS011;2418;49.930;8.606;2023-10-19T06:30:37;35.08;;;22.33;;
4808;SDS011;2418;49.930;8.606;2023-10-19T06:33:05;40.80;;;23.17;;
4808;SDS011;2418;49.930;8.606;2023-10-19T06:35:31;42.13;;;22.88;;
4808;SDS011;2418;49.930;8.606;2023-10-19T06:37:57;35.15;;;21.95;;
4808;SDS011;2418;49.930;8.606;2023-10-19T06:40:28;42.22;;;22.65;;
4808;SDS011;2418;49.930;8.606;2023-10-19T06:42:54;38.92;;;23.20;;
4808;SDS011;2418;49.930;8.606;2023-10-19T06:45:21;39.22;;;24.02;;
4808;SDS011;2418;49.930;8.606;2023-10-19T06:47:48;40.33;;;23.95;;
4808;SDS011;2418;49.930;8.606;2023-10-19T06:50:15;37.25;;;23.88;;
4808;SDS011;2418;49.930;8.606;2023-10-19T06:52:42;33.78;;;23.55;;
4808;SDS011;2418;49.930;8.606;2023-10-19T06:55:09;35.13;;;23.40;;
4808;SDS011;2418;49.930;8.606;2023-10-19T06:57:41;36.45;;;22.98;;
4808;SDS011;2418;49.930;8.606;2023-10-19T07:00:11;42.80;;;22.67;;
4808;SDS011;2418;49.930;8.606;2023-10-19T07:02:50;33.50;;;23.15;;
4808;SDS011;2418;49.930;8.606;2023-10-19T07:05:17;33.85;;;21.58;;
4808;SDS011;2418;49.930;8.606;2023-10-19T07:07:44;33.80;;;22.90;;
4808;SDS011;2418;49.930;8.606;2023-10-19T07:10:11;36.10;;;22.20;;
4808;SDS011;2418;49.930;8.606;2023-10-19T07:12:38;30.65;;;22.25;;
4808;SDS011;2418;49.930;8.606;2023-10-19T07:15:05;36.85;;;21.95;;
4808;SDS011;2418;49.930;8.606;2023-10-19T07:17:32;29.13;;;19.92;;
4808;SDS011;2418;49.930;8.606;2023-10-19T07:19:58;32.50;;;21.95;;
4808;SDS011;2418;49.930;8.606;2023-10-19T07:22:24;27.77;;;20.20;;
4808;SDS011;2418;49.930;8.606;2023-10-19T07:24:53;33.88;;;20.50;;
4808;SDS011;2418;49.930;8.606;2023-10-19T07:27:20;26.95;;;19.45;;
4808;SDS011;2418;49.930;8.606;2023-10-19T07:29:47;28.48;;;20.17;;
4808;SDS011;2418;49.930;8.606;2023-10-19T07:32:13;25.92;;;18.30;;
4808;SDS011;2418;49.930;8.606;2023-10-19T07:34:42;23.25;;;17.33;;
4808;SDS011;2418;49.930;8.606;2023-10-19T07:37:11;25.77;;;17.60;;
4808;SDS011;2418;49.930;8.606;2023-10-19T07:39:44;22.27;;;16.50;;
4808;SDS011;2418;49.930;8.606;2023-10-19T07:42:10;24.08;;;16.27;;
4808;SDS011;2418;49.930;8.606;2023-10-19T07:44:37;18.45;;;14.82;;
4808;SDS011;2418;49.930;8.606;2023-10-19T07:47:03;20.02;;;15.07;;
4808;SDS011;2418;49.930;8.606;2023-10-19T07:49:29;22.80;;;14.17;;
4808;SDS011;2418;49.930;8.606;2023-10-19T07:51:55;18.92;;;14.48;;
4808;SDS011;2418;49.930;8.606;2023-10-19T07:54:23;18.42;;;13.50;;
4808;SDS011;2418;49.930;8.606;2023-10-19T07:56:48;19.08;;;14.30;;
4808;SDS011;2418;49.930;8.606;2023-10-19T07:59:15;20.50;;;13.48;;
4808;SDS011;2418;49.930;8.606;2023-10-19T08:01:41;20.25;;;13.60;;
4808;SDS011;2418;49.930;8.606;2023-10-19T08:04:07;20.48;;;13.45;;
4808;SDS011;2418;49.930;8.606;2023-10-19T08:06:33;16.67;;;12.98;;
4808;SDS011;2418;49.930;8.606;2023-10-19T08:08:59;16.97;;;13.43;;
4808;SDS011;2418;49.930;8.606;2023-10-19T08:11:26;16.73;;;12.95;;
4808;SDS011;2418;49.930;8.606;2023-10-19T08:13:51;23.15;;;13.00;;
4808;SDS011;2418;49.930;8.606;2023-10-19T08:16:20;14.07;;;12.57;;
4808;SDS011;2418;49.930;8.606;2023-10-19T08:18:46;20.73;;;13.18;;
4808;SDS011;2418;49.930;8.606;2023-10-19T08:21:12;16.02;;;12.82;;
4808;SDS011;2418;49.930;8.606;2023-10-19T08:23:38;15.75;;;13.40;;
4808;SDS011;2418;49.930;8.606;2023-10-19T08:26:04;17.55;;;13.52;;
4808;SDS011;2418;49.930;8.606;2023-10-19T08:28:31;15.50;;;12.98;;
4808;SDS011;2418;49.930;8.606;2023-10-19T08:30:58;15.88;;;13.65;;
4808;SDS011;2418;49.930;8.606;2023-10-19T08:33:28;19.05;;;12.90;;
4808;SDS011;2418;49.930;8.606;2023-10-19T08:35:55;17.90;;;14.00;;
4808;SDS011;2418;49.930;8.606;2023-10-19T08:38:22;18.83;;;13.43;;
4808;SDS011;2418;49.930;8.606;2023-10-19T08:40:51;20.73;;;13.98;;
4808;SDS011;2418;49.930;8.606;2023-10-19T08:43:18;20.42;;;13.77;;
4808;SDS011;2418;49.930;8.606;2023-10-19T08:45:44;21.65;;;14.50;;
4808;SDS011;2418;49.930;8.606;2023-10-19T08:48:10;21.80;;;13.85;;
4808;SDS011;2418;49.930;8.606;2023-10-19T08:50:36;15.27;;;12.70;;
4808;SDS011;2418;49.930;8.606;2023-10-19T08:53:04;19.30;;;14.35;;
4808;SDS011;2418;49.930;8.606;2023-10-19T08:55:33;15.38;;;13.43;;
4808;SDS011;2418;49.930;8.606;2023-10-19T08:58:02;20.17;;;13.57;;
4808;SDS011;2418;49.930;8.606;2023-10-19T09:00:50;17.70;;;13.60;;
4808;SDS011;2418;49.930;8.606;2023-10-19T09:03:19;18.80;;;13.77;;
4808;SDS011;2418;49.930;8.606;2023-10-19T09:05:47;18.17;;;13.30;;
4808;SDS011;2418;49.930;8.606;2023-10-19T09:08:16;17.38;;;13.25;;
4808;SDS011;2418;49.930;8.606;2023-10-19T09:10:42;17.30;;;12.77;;
4808;SDS011;2418;49.930;8.606;2023-10-19T09:13:12;13.93;;;11.80;;
4808;SDS011;2418;49.930;8.606;2023-10-19T09:15:40;17.45;;;13.18;;
4808;SDS011;2418;49.930;8.606;2023-10-19T09:18:11;17.40;;;13.10;;
4808;SDS011;2418;49.930;8.606;2023-10-19T09:20:39;18.27;;;12.25;;
4808;SDS011;2418;49.930;8.606;2023-10-19T09:23:07;17.65;;;11.65;;
4808;SDS011;2418;49.930;8.606;2023-10-19T09:25:33;16.98;;;12.68;;
4808;SDS011;2418;49.930;8.606;2023-10-19T09:28:00;15.25;;;12.20;;
4808;SDS011;2418;49.930;8.606;2023-10-19T09:30:27;13.73;;;11.57;;
4808;SDS011;2418;49.930;8.606;2023-10-19T09:32:58;16.38;;;11.20;;
4808;SDS011;2418;49.930;8.606;2023-10-19T09:35:24;14.90;;;11.30;;
4808;SDS011;2418;49.930;8.606;2023-10-19T09:37:56;13.10;;;11.27;;
4808;SDS011;2418;49.930;8.606;2023-10-19T09:40:22;16.08;;;11.68;;
4808;SDS011;2418;49.930;8.606;2023-10-19T09:42:49;12.77;;;10.70;;
4808;SDS011;2418;49.930;8.606;2023-10-19T09:45:19;11.02;;;9.77;;
4808;SDS011;2418;49.930;8.606;2023-10-19T09:47:49;11.23;;;10.03;;
4808;SDS011;2418;49.930;8.606;2023-10-19T09:50:18;12.32;;;9.95;;
4808;SDS011;2418;49.930;8.606;2023-10-19T09:52:45;10.20;;;9.00;;
4808;SDS011;2418;49.930;8.606;2023-10-19T09:55:22;10.50;;;8.93;;
4808;SDS011;2418;49.930;8.606;2023-10-19T10:00:17;11.75;;;9.35;;
4808;SDS011;2418;49.930;8.606;2023-10-19T10:02:48;13.83;;;8.87;;
4808;SDS011;2418;49.930;8.606;2023-10-19T10:13:43;13.00;;;7.55;;
4808;SDS011;2418;49.930;8.606;2023-10-19T10:16:02;5.73;;;5.30;;
4808;SDS011;2418;49.930;8.606;2023-10-19T10:18:32;4.90;;;4.60;;
4808;SDS011;2418;49.930;8.606;2023-10-19T10:21:16;4.10;;;3.80;;
4808;SDS011;2418;49.930;8.606;2023-10-19T10:23:43;5.78;;;4.75;;
4808;SDS011;2418;49.930;8.606;2023-10-19T10:26:11;7.20;;;4.38;;
4808;SDS011;2418;49.930;8.606;2023-10-19T10:28:39;4.63;;;4.05;;
4808;SDS011;2418;49.930;8.606;2023-10-19T10:31:07;3.83;;;3.22;;
4808;SDS011;2418;49.930;8.606;2023-10-19T10:36:10;6.88;;;4.10;;
4808;SDS011;2418;49.930;8.606;2023-10-19T10:38:36;4.10;;;3.40;;
4808;SDS011;2418;49.930;8.606;2023-10-19T10:41:03;5.20;;;3.80;;
4808;SDS011;2418;49.930;8.606;2023-10-19T10:43:30;6.22;;;3.10;;
4808;SDS011;2418;49.930;8.606;2023-10-19T10:46:06;2.70;;;2.20;;
4808;SDS011;2418;49.930;8.606;2023-10-19T10:48:40;6.30;;;3.07;;
4808;SDS011;2418;49.930;8.606;2023-10-19T10:51:16;6.45;;;2.80;;
4808;SDS011;2418;49.930;8.606;2023-10-19T10:53:43;3.28;;;2.83;;
4808;SDS011;2418;49.930;8.606;2023-10-19T10:56:09;3.50;;;2.83;;
4808;SDS011;2418;49.930;8.606;2023-10-19T10:58:35;3.10;;;2.83;;
4808;SDS011;2418;49.930;8.606;2023-10-19T11:01:02;3.50;;;3.20;;
4808;SDS011;2418;49.930;8.606;2023-10-19T11:03:31;4.05;;;2.55;;
4808;SDS011;2418;49.930;8.606;2023-10-19T11:06:04;5.50;;;3.50;;
4808;SDS011;2418;49.930;8.606;2023-10-19T11:08:33;4.57;;;3.78;;
4808;SDS011;2418;49.930;8.606;2023-10-19T11:11:02;3.60;;;3.30;;
4808;SDS011;2418;49.930;8.606;2023-10-19T11:13:29;4.90;;;3.92;;
4808;SDS011;2418;49.930;8.606;2023-10-19T11:15:58;6.75;;;3.97;;
4808;SDS011;2418;49.930;8.606;2023-10-19T11:18:36;3.30;;;2.90;;
4808;SDS011;2418;49.930;8.606;2023-10-19T11:21:03;5.40;;;3.10;;
4808;SDS011;2418;49.930;8.606;2023-10-19T11:26:01;4.35;;;3.45;;
4808;SDS011;2418;49.930;8.606;2023-10-19T11:28:30;4.68;;;3.65;;
4808;SDS011;2418;49.930;8.606;2023-10-19T11:31:10;3.55;;;3.28;;
4808;SDS011;2418;49.930;8.606;2023-10-19T11:33:37;3.70;;;3.40;;
4808;SDS011;2418;49.930;8.606;2023-10-19T11:36:03;5.03;;;3.90;;
4808;SDS011;2418;49.930;8.606;2023-10-19T11:38:29;7.22;;;3.85;;
4808;SDS011;2418;49.930;8.606;2023-10-19T11:40:55;7.17;;;3.63;;
4808;SDS011;2418;49.930;8.606;2023-10-19T11:43:22;4.20;;;3.70;;
4808;SDS011;2418;49.930;8.606;2023-10-19T11:45:48;4.40;;;4.00;;
4808;SDS011;2418;49.930;8.606;2023-10-19T11:48:14;6.00;;;4.30;;
4808;SDS011;2418;49.930;8.606;2023-10-19T11:50:40;4.25;;;3.85;;
4808;SDS011;2418;49.930;8.606;2023-10-19T11:53:06;11.20;;;4.20;;
4808;SDS011;2418;49.930;8.606;2023-10-19T11:55:35;6.63;;;3.90;;
4808;SDS011;2418;49.930;8.606;2023-10-19T11:58:01;4.50;;;4.10;;
4808;SDS011;2418;49.930;8.606;2023-10-19T12:00:27;4.28;;;3.97;;
4808;SDS011;2418;49.930;8.606;2023-10-19T12:03:02;5.88;;;4.90;;
4808;SDS011;2418;49.930;8.606;2023-10-19T12:05:29;7.70;;;5.18;;
4808;SDS011;2418;49.930;8.606;2023-10-19T12:07:55;7.18;;;4.90;;
4808;SDS011;2418;49.930;8.606;2023-10-19T12:10:21;6.90;;;5.13;;
4808;SDS011;2418;49.930;8.606;2023-10-19T12:12:57;5.28;;;4.78;;
4808;SDS011;2418;49.930;8.606;2023-10-19T12:15:23;4.83;;;4.33;;
4808;SDS011;2418;49.930;8.606;2023-10-19T12:17:50;7.00;;;4.67;;
4808;SDS011;2418;49.930;8.606;2023-10-19T12:20:16;4.80;;;4.40;;
4808;SDS011;2418;49.930;8.606;2023-10-19T12:22:46;8.02;;;4.35;;
4808;SDS011;2418;49.930;8.606;2023-10-19T12:25:13;5.20;;;4.70;;
4808;SDS011;2418;49.930;8.606;2023-10-19T12:27:39;6.00;;;4.70;;
4808;SDS011;2418;49.930;8.606;2023-10-19T12:30:05;5.20;;;3.90;;
4808;SDS011;2418;49.930;8.606;2023-10-19T12:32:42;4.00;;;3.50;;
4808;SDS011;2418;49.930;8.606;2023-10-19T12:35:08;4.25;;;3.70;;
4808;SDS011;2418;49.930;8.606;2023-10-19T12:37:37;3.92;;;3.72;;
4808;SDS011;2418;49.930;8.606;2023-10-19T12:40:12;4.35;;;3.30;;
4808;SDS011;2418;49.930;8.606;2023-10-19T12:42:54;4.23;;;3.93;;
4808;SDS011;2418;49.930;8.606;2023-10-19T12:45:22;5.38;;;4.25;;
4808;SDS011;2418;49.930;8.606;2023-10-19T12:47:48;4.70;;;4.30;;
4808;SDS011;2418;49.930;8.606;2023-10-19T12:50:14;4.20;;;3.90;;
4808;SDS011;2418;49.930;8.606;2023-10-19T12:52:41;7.90;;;4.70;;
4808;SDS011;2418;49.930;8.606;2023-10-19T12:55:07;4.68;;;4.30;;
4808;SDS011;2418;49.930;8.606;2023-10-19T12:57:34;8.35;;;6.32;;
4808;SDS011;2418;49.930;8.606;2023-10-19T13:00:00;17.55;;;8.50;;
4808;SDS011;2418;49.930;8.606;2023-10-19T13:02:46;9.77;;;7.22;;
4808;SDS011;2418;49.930;8.606;2023-10-19T13:05:12;8.77;;;7.87;;
4808;SDS011;2418;49.930;8.606;2023-10-19T13:07:43;15.50;;;9.73;;
4808;SDS011;2418;49.930;8.606;2023-10-19T13:10:09;17.25;;;15.02;;
4808;SDS011;2418;49.930;8.606;2023-10-19T13:12:36;17.38;;;13.30;;
4808;SDS011;2418;49.930;8.606;2023-10-19T13:15:02;7.63;;;7.03;;
4808;SDS011;2418;49.930;8.606;2023-10-19T13:17:28;18.98;;;11.95;;
4808;SDS011;2418;49.930;8.606;2023-10-19T13:19:55;13.20;;;11.70;;
4808;SDS011;2418;49.930;8.606;2023-10-19T13:22:26;22.35;;;20.00;;
4808;SDS011;2418;49.930;8.606;2023-10-19T13:24:54;15.15;;;13.55;;
4808;SDS011;2418;49.930;8.606;2023-10-19T13:27:21;8.90;;;7.18;;
4808;SDS011;2418;49.930;8.606;2023-10-19T13:32:21;5.75;;;5.15;;
4808;SDS011;2418;49.930;8.606;2023-10-19T13:34:47;6.55;;;5.78;;
4808;SDS011;2418;49.930;8.606;2023-10-19T13:37:15;6.20;;;5.05;;
4808;SDS011;2418;49.930;8.606;2023-10-19T13:39:41;6.13;;;5.13;;
4808;SDS011;2418;49.930;8.606;2023-10-19T13:42:07;6.07;;;5.10;;
4808;SDS011;2418;49.930;8.606;2023-10-19T13:44:34;5.72;;;5.22;;
4808;SDS011;2418;49.930;8.606;2023-10-19T13:47:00;6.53;;;5.80;;
4808;SDS011;2418;49.930;8.606;2023-10-19T13:49:32;9.70;;;6.00;;
4808;SDS011;2418;49.930;8.606;2023-10-19T13:51:58;6.28;;;5.85;;
4808;SDS011;2418;49.930;8.606;2023-10-19T13:54:24;6.07;;;5.47;;
4808;SDS011;2418;49.930;8.606;2023-10-19T13:56:51;6.53;;;5.40;;
4808;SDS011;2418;49.930;8.606;2023-10-19T13:59:17;5.88;;;5.38;;
4808;SDS011;2418;49.930;8.606;2023-10-19T14:01:43;6.38;;;5.90;;
4808;SDS011;2418;49.930;8.606;2023-10-19T14:04:09;5.87;;;5.27;;
4808;SDS011;2418;49.930;8.606;2023-10-19T14:06:35;6.40;;;5.80;;
4808;SDS011;2418;49.930;8.606;2023-10-19T14:09:02;6.30;;;5.70;;
4808;SDS011;2418;49.930;8.606;2023-10-19T14:11:31;8.07;;;6.15;;
4808;SDS011;2418;49.930;8.606;2023-10-19T14:13:57;6.80;;;6.10;;
4808;SDS011;2418;49.930;8.606;2023-10-19T14:16:23;7.03;;;6.43;;
4808;SDS011;2418;49.930;8.606;2023-10-19T14:18:50;7.20;;;6.60;;
4808;SDS011;2418;49.930;8.606;2023-10-19T14:21:17;6.57;;;6.10;;
4808;SDS011;2418;49.930;8.606;2023-10-19T14:23:45;7.70;;;6.53;;
4808;SDS011;2418;49.930;8.606;2023-10-19T14:26:13;6.60;;;6.10;;
4808;SDS011;2418;49.930;8.606;2023-10-19T14:28:39;6.50;;;6.00;;
4808;SDS011;2418;49.930;8.606;2023-10-19T14:31:06;6.60;;;6.10;;
4808;SDS011;2418;49.930;8.606;2023-10-19T14:33:37;7.13;;;6.10;;
4808;SDS011;2418;49.930;8.606;2023-10-19T14:36:07;7.22;;;6.53;;
4808;SDS011;2418;49.930;8.606;2023-10-19T14:38:33;7.40;;;6.90;;
4808;SDS011;2418;49.930;8.606;2023-10-19T14:41:01;9.45;;;6.65;;
4808;SDS011;2418;49.930;8.606;2023-10-19T14:43:28;7.20;;;6.70;;
4808;SDS011;2418;49.930;8.606;2023-10-19T14:45:54;7.32;;;6.65;;
4808;SDS011;2418;49.930;8.606;2023-10-19T14:48:22;8.60;;;6.72;;
4808;SDS011;2418;49.930;8.606;2023-10-19T14:50:49;8.00;;;7.13;;
4808;SDS011;2418;49.930;8.606;2023-10-19T14:53:16;10.75;;;7.20;;
4808;SDS011;2418;49.930;8.606;2023-10-19T14:55:43;7.53;;;6.93;;
4808;SDS011;2418;49.930;8.606;2023-10-19T14:58:12;10.60;;;9.35;;
4808;SDS011;2418;49.930;8.606;2023-10-19T15:00:40;11.10;;;9.52;;
4808;SDS011;2418;49.930;8.606;2023-10-19T15:03:10;7.28;;;6.40;;
4808;SDS011;2418;49.930;8.606;2023-10-19T15:05:36;9.17;;;6.90;;
4808;SDS011;2418;49.930;8.606;2023-10-19T15:08:03;10.70;;;6.82;;
4808;SDS011;2418;49.930;8.606;2023-10-19T15:10:32;9.50;;;8.50;;
4808;SDS011;2418;49.930;8.606;2023-10-19T15:12:59;12.40;;;9.00;;
4808;SDS011;2418;49.930;8.606;2023-10-19T15:15:25;7.88;;;7.15;;
4808;SDS011;2418;49.930;8.606;2023-10-19T15:17:52;8.65;;;7.85;;
4808;SDS011;2418;49.930;8.606;2023-10-19T15:20:19;8.00;;;7.30;;